createdAt,value
2016-07-25T00:00:08.738Z,1012.49
2016-07-25T00:01:08.741Z,1012.46
2016-07-25T00:02:08.743Z,1012.49
2016-07-25T00:03:08.750Z,1012.46
2016-07-25T00:04:08.752Z,1012.48
2016-07-25T00:05:08.768Z,1012.46
2016-07-25T00:06:08.759Z,1012.48
2016-07-25T00:07:08.765Z,1012.49
2016-07-25T00:08:08.768Z,1012.47
2016-07-25T00:09:08.771Z,1012.45
2016-07-25T00:10:08.777Z,1012.49
2016-07-25T00:11:08.780Z,1012.48
2016-07-25T00:12:08.983Z,1012.44
2016-07-25T00:13:08.787Z,1012.46
2016-07-25T00:14:08.843Z,1012.45
2016-07-25T00:15:08.798Z,1012.44
2016-07-25T00:16:08.803Z,1012.45
2016-07-25T00:17:08.807Z,1012.43
2016-07-25T00:18:08.811Z,1012.42
2016-07-25T00:19:08.826Z,1012.4
2016-07-25T00:20:08.817Z,1012.41
2016-07-25T00:21:08.821Z,1012.46
2016-07-25T00:22:08.826Z,1012.41
2016-07-25T00:23:08.831Z,1012.4
2016-07-25T00:24:08.832Z,1012.42
2016-07-25T00:25:08.838Z,1012.44
2016-07-25T00:26:08.841Z,1012.44
2016-07-25T00:27:08.843Z,1012.45
2016-07-25T00:28:08.849Z,1012.47
2016-07-25T00:29:08.853Z,1012.45
2016-07-25T00:30:08.857Z,1012.46
2016-07-25T00:31:08.869Z,1012.45
2016-07-25T00:32:08.866Z,1012.45
2016-07-25T00:33:08.870Z,1012.45
2016-07-25T00:34:08.873Z,1012.46
2016-07-25T00:35:08.878Z,1012.42
2016-07-25T00:36:09.883Z,1012.45
2016-07-25T00:37:08.885Z,1012.45
2016-07-25T00:38:08.889Z,1012.45
2016-07-25T00:39:08.893Z,1012.47
2016-07-25T00:40:08.897Z,1012.45
2016-07-25T00:41:08.899Z,1012.44
2016-07-25T00:42:08.904Z,1012.46
2016-07-25T00:43:08.909Z,1012.47
2016-07-25T00:44:08.913Z,1012.48
2016-07-25T00:45:08.918Z,1012.46
2016-07-25T00:46:08.927Z,1012.49
2016-07-25T00:47:08.926Z,1012.55
2016-07-25T00:48:08.929Z,1012.5
2016-07-25T00:49:08.940Z,1012.52
2016-07-25T00:50:08.937Z,1012.54
2016-07-25T00:51:08.944Z,1012.52
2016-07-25T00:52:08.947Z,1012.48
2016-07-25T00:53:08.954Z,1012.5
2016-07-25T00:54:08.957Z,1012.49
2016-07-25T00:55:08.964Z,1012.48
2016-07-25T00:56:08.966Z,1012.49
2016-07-25T00:57:08.973Z,1012.49
2016-07-25T00:58:09.727Z,1012.55
2016-07-25T00:59:08.982Z,1012.52
2016-07-25T01:00:08.984Z,1012.5
2016-07-25T01:01:08.993Z,1012.43
2016-07-25T01:02:08.994Z,1012.46
2016-07-25T01:03:09.000Z,1012.43
2016-07-25T01:04:09.004Z,1012.46
2016-07-25T01:05:09.010Z,1012.45
2016-07-25T01:06:09.013Z,1012.46
2016-07-25T01:07:09.023Z,1012.45
2016-07-25T01:08:09.022Z,1012.46
2016-07-25T01:09:09.033Z,1012.43
2016-07-25T01:10:09.029Z,1012.42
2016-07-25T01:11:09.036Z,1012.45
2016-07-25T01:12:09.041Z,1012.46
2016-07-25T01:13:09.047Z,1012.52
2016-07-25T01:14:09.050Z,1012.46
2016-07-25T01:15:09.057Z,1012.54
2016-07-25T01:16:09.060Z,1012.5
2016-07-25T01:17:09.066Z,1012.51
2016-07-25T01:18:09.070Z,1012.5
2016-07-25T01:19:09.077Z,1012.49
2016-07-25T01:20:09.783Z,1012.48
2016-07-25T01:21:09.086Z,1012.49
2016-07-25T01:22:09.091Z,1012.49
2016-07-25T01:23:09.097Z,1012.48
2016-07-25T01:24:09.102Z,1012.5
2016-07-25T01:25:09.108Z,1012.54
2016-07-25T01:26:09.113Z,1012.49
2016-07-25T01:27:09.118Z,1012.5
2016-07-25T01:28:09.123Z,1012.48
2016-07-25T01:29:09.127Z,1012.47
2016-07-25T01:30:09.132Z,1012.47
2016-07-25T01:31:09.137Z,1012.45
2016-07-25T01:32:09.140Z,1012.46
2016-07-25T01:33:09.145Z,1012.42
2016-07-25T01:34:09.150Z,1012.4
2016-07-25T01:35:09.157Z,1012.42
2016-07-25T01:36:09.161Z,1012.4
2016-07-25T01:37:09.163Z,1012.4
2016-07-25T01:38:09.169Z,1012.39
2016-07-25T01:39:09.173Z,1012.46
2016-07-25T01:40:09.177Z,1012.42
2016-07-25T01:41:09.182Z,1012.44
2016-07-25T01:42:09.686Z,1012.41
2016-07-25T01:43:09.188Z,1012.36
2016-07-25T01:44:09.196Z,1012.37
2016-07-25T01:45:09.198Z,1012.35
2016-07-25T01:46:09.202Z,1012.37
2016-07-25T01:47:09.206Z,1012.31
2016-07-25T01:48:09.211Z,1012.37
2016-07-25T01:49:09.215Z,1012.35
2016-07-25T01:50:09.218Z,1012.34
2016-07-25T01:51:09.221Z,1012.31
2016-07-25T01:52:09.227Z,1012.31
2016-07-25T01:53:09.231Z,1012.28
2016-07-25T01:54:09.234Z,1012.27
2016-07-25T01:55:09.238Z,1012.28
2016-07-25T01:56:09.240Z,1012.3
2016-07-25T01:57:09.896Z,1012.28
2016-07-25T01:58:09.250Z,1012.29
2016-07-25T01:59:09.253Z,1012.29
2016-07-25T02:00:09.259Z,1012.3
2016-07-25T02:01:09.262Z,1012.29
2016-07-25T02:02:09.266Z,1012.24
2016-07-25T02:03:09.271Z,1012.33
2016-07-25T02:04:09.274Z,1012.27
2016-07-25T02:05:09.277Z,1012.29
2016-07-25T02:06:09.286Z,1012.33
2016-07-25T02:07:09.286Z,1012.33
2016-07-25T02:08:09.289Z,1012.38
2016-07-25T02:09:09.294Z,1012.39
2016-07-25T02:10:09.296Z,1012.41
2016-07-25T02:11:09.301Z,1012.4
2016-07-25T02:12:09.308Z,1012.39
2016-07-25T02:13:09.314Z,1012.39
2016-07-25T02:14:09.319Z,1012.41
2016-07-25T02:15:09.324Z,1012.41
2016-07-25T02:16:09.330Z,1012.43
2016-07-25T02:17:09.334Z,1012.45
2016-07-25T02:18:09.340Z,1012.42
2016-07-25T02:19:10.246Z,1012.38
2016-07-25T02:20:09.351Z,1012.41
2016-07-25T02:21:09.405Z,1012.38
2016-07-25T02:22:09.360Z,1012.33
2016-07-25T02:23:09.367Z,1012.36
2016-07-25T02:24:09.373Z,1012.4
2016-07-25T02:25:09.379Z,1012.32
2016-07-25T02:26:09.386Z,1012.37
2016-07-25T02:27:09.390Z,1012.35
2016-07-25T02:28:09.397Z,1012.37
2016-07-25T02:29:09.402Z,1012.44
2016-07-25T02:30:09.410Z,1012.36
2016-07-25T02:31:09.413Z,1012.35
2016-07-25T02:32:09.420Z,1012.37
2016-07-25T02:33:09.426Z,1012.4
2016-07-25T02:34:09.431Z,1012.38
2016-07-25T02:35:09.437Z,1012.35
2016-07-25T02:36:09.443Z,1012.35
2016-07-25T02:37:09.447Z,1012.36
2016-07-25T02:38:09.455Z,1012.38
2016-07-25T02:39:09.460Z,1012.4
2016-07-25T02:40:09.466Z,1012.42
2016-07-25T02:41:10.073Z,1012.4
2016-07-25T02:42:09.479Z,1012.4
2016-07-25T02:43:09.484Z,1012.42
2016-07-25T02:44:09.491Z,1012.4
2016-07-25T02:45:09.497Z,1012.4
2016-07-25T02:46:09.503Z,1012.39
2016-07-25T02:47:09.509Z,1012.39
2016-07-25T02:48:09.516Z,1012.37
2016-07-25T02:49:09.520Z,1012.38
2016-07-25T02:50:09.526Z,1012.38
2016-07-25T02:51:09.533Z,1012.41
2016-07-25T02:52:09.540Z,1012.38
2016-07-25T02:53:09.545Z,1012.39
2016-07-25T02:54:09.552Z,1012.44
2016-07-25T02:55:09.556Z,1012.48
2016-07-25T02:56:09.563Z,1012.45
2016-07-25T02:57:09.566Z,1012.44
2016-07-25T02:58:09.575Z,1012.46
2016-07-25T02:59:09.578Z,1012.48
2016-07-25T03:00:09.582Z,1012.47
2016-07-25T03:01:09.587Z,1012.45
2016-07-25T03:02:09.591Z,1012.47
2016-07-25T03:03:09.846Z,1012.46
2016-07-25T03:04:09.597Z,1012.46
2016-07-25T03:05:09.605Z,1012.48
2016-07-25T03:06:09.608Z,1012.47
2016-07-25T03:07:09.625Z,1012.45
2016-07-25T03:08:09.618Z,1012.43
2016-07-25T03:09:09.625Z,1012.48
2016-07-25T03:10:09.628Z,1012.5
2016-07-25T03:11:09.633Z,1012.47
2016-07-25T03:12:09.637Z,1012.47
2016-07-25T03:13:09.643Z,1012.51
2016-07-25T03:14:09.647Z,1012.51
2016-07-25T03:15:09.652Z,1012.46
2016-07-25T03:16:09.656Z,1012.49
2016-07-25T03:17:09.662Z,1012.45
2016-07-25T03:18:09.664Z,1012.47
2016-07-25T03:19:09.675Z,1012.46
2016-07-25T03:20:09.675Z,1012.49
2016-07-25T03:21:09.679Z,1012.51
2016-07-25T03:22:09.683Z,1012.55
2016-07-25T03:23:09.687Z,1012.52
2016-07-25T03:24:09.692Z,1012.51
2016-07-25T03:25:09.895Z,1012.53
2016-07-25T03:26:09.698Z,1012.55
2016-07-25T03:27:09.705Z,1012.53
2016-07-25T03:28:09.706Z,1012.61
2016-07-25T03:29:09.713Z,1012.57
2016-07-25T03:30:09.717Z,1012.59
2016-07-25T03:31:09.845Z,1012.58
2016-07-25T03:32:09.727Z,1012.58
2016-07-25T03:33:09.731Z,1012.61
2016-07-25T03:34:09.737Z,1012.61
2016-07-25T03:35:09.742Z,1012.61
2016-07-25T03:36:09.747Z,1012.6
2016-07-25T03:37:09.753Z,1012.6
2016-07-25T03:38:09.756Z,1012.57
2016-07-25T03:39:09.763Z,1012.59
2016-07-25T03:40:10.117Z,1012.57
2016-07-25T03:41:09.771Z,1012.57
2016-07-25T03:42:09.776Z,1012.53
2016-07-25T03:43:09.781Z,1012.53
2016-07-25T03:44:09.786Z,1012.56
2016-07-25T03:45:09.790Z,1012.61
2016-07-25T03:46:09.797Z,1012.59
2016-07-25T03:47:09.800Z,1012.6
2016-07-25T03:48:09.804Z,1012.58
2016-07-25T03:49:09.809Z,1012.58
2016-07-25T03:50:09.814Z,1012.57
2016-07-25T03:51:09.818Z,1012.6
2016-07-25T03:52:09.822Z,1012.6
2016-07-25T03:53:09.827Z,1012.59
2016-07-25T03:54:09.830Z,1012.6
2016-07-25T03:55:09.835Z,1012.64
2016-07-25T03:56:09.839Z,1012.61
2016-07-25T03:57:09.843Z,1012.62
2016-07-25T03:58:09.845Z,1012.6
2016-07-25T03:59:09.851Z,1012.64
2016-07-25T04:00:09.855Z,1012.62
2016-07-25T04:01:09.859Z,1012.59
2016-07-25T04:02:10.510Z,1012.57
2016-07-25T04:03:09.865Z,1012.58
2016-07-25T04:04:09.869Z,1012.53
2016-07-25T04:05:09.873Z,1012.55
2016-07-25T04:06:09.876Z,1012.54
2016-07-25T04:07:09.879Z,1012.57
2016-07-25T04:08:09.884Z,1012.57
2016-07-25T04:09:09.887Z,1012.6
2016-07-25T04:10:09.888Z,1012.6
2016-07-25T04:11:09.893Z,1012.58
2016-07-25T04:12:09.898Z,1012.57
2016-07-25T04:13:09.900Z,1012.57
2016-07-25T04:14:09.905Z,1012.58
2016-07-25T04:15:09.909Z,1012.62
2016-07-25T04:16:09.913Z,1012.55
2016-07-25T04:17:09.916Z,1012.57
2016-07-25T04:18:09.920Z,1012.6
2016-07-25T04:19:09.924Z,1012.6
2016-07-25T04:20:09.927Z,1012.61
2016-07-25T04:21:09.932Z,1012.61
2016-07-25T04:22:09.935Z,1012.59
2016-07-25T04:23:09.941Z,1012.6
2016-07-25T04:24:09.995Z,1012.6
2016-07-25T04:25:09.949Z,1012.63
2016-07-25T04:26:09.952Z,1012.61
2016-07-25T04:27:09.958Z,1012.6
2016-07-25T04:28:09.964Z,1012.63
2016-07-25T04:29:09.965Z,1012.63
2016-07-25T04:30:09.970Z,1012.65
2016-07-25T04:31:09.973Z,1012.65
2016-07-25T04:32:09.979Z,1012.66
2016-07-25T04:33:09.983Z,1012.64
2016-07-25T04:34:09.988Z,1012.61
2016-07-25T04:35:09.990Z,1012.63
2016-07-25T04:36:09.996Z,1012.64
2016-07-25T04:37:09.999Z,1012.59
2016-07-25T04:38:10.004Z,1012.63
2016-07-25T04:39:10.007Z,1012.59
2016-07-25T04:40:10.010Z,1012.61
2016-07-25T04:41:10.017Z,1012.62
2016-07-25T04:42:10.019Z,1012.62
2016-07-25T04:43:10.024Z,1012.66
2016-07-25T04:44:10.031Z,1012.69
2016-07-25T04:45:10.035Z,1012.69
2016-07-25T04:46:10.038Z,1012.73
2016-07-25T04:47:10.044Z,1012.67
2016-07-25T04:48:11.152Z,1012.68
2016-07-25T04:49:10.056Z,1012.68
2016-07-25T04:50:10.062Z,1012.61
2016-07-25T04:51:10.066Z,1012.56
2016-07-25T04:52:10.072Z,1012.6
2016-07-25T04:53:10.078Z,1012.59
2016-07-25T04:54:10.083Z,1012.6
2016-07-25T04:55:10.090Z,1012.57
2016-07-25T04:56:10.095Z,1012.55
2016-07-25T04:57:10.101Z,1012.57
2016-07-25T04:58:10.106Z,1012.54
2016-07-25T04:59:10.113Z,1012.58
2016-07-25T05:00:10.117Z,1012.6
2016-07-25T05:01:10.123Z,1012.59
2016-07-25T05:02:10.129Z,1012.57
2016-07-25T05:03:10.135Z,1012.59
2016-07-25T05:04:10.139Z,1012.59
2016-07-25T05:05:10.152Z,1012.58
2016-07-25T05:06:10.153Z,1012.58
2016-07-25T05:07:10.159Z,1012.63
2016-07-25T05:08:10.164Z,1012.64
2016-07-25T05:09:10.221Z,1012.64
2016-07-25T05:10:11.127Z,1012.69
2016-07-25T05:11:10.182Z,1012.69
2016-07-25T05:12:10.235Z,1012.71
2016-07-25T05:13:10.190Z,1012.71
2016-07-25T05:14:10.196Z,1012.74
2016-07-25T05:15:10.201Z,1012.74
2016-07-25T05:16:10.206Z,1012.72
2016-07-25T05:17:10.211Z,1012.72
2016-07-25T05:18:10.217Z,1012.71
2016-07-25T05:19:10.222Z,1012.74
2016-07-25T05:20:10.227Z,1012.73
2016-07-25T05:21:10.235Z,1012.79
2016-07-25T05:22:10.239Z,1012.85
2016-07-25T05:23:10.246Z,1012.88
2016-07-25T05:24:10.252Z,1012.9
2016-07-25T05:25:10.259Z,1012.87
2016-07-25T05:26:10.265Z,1012.82
2016-07-25T05:27:10.271Z,1012.81
2016-07-25T05:28:10.282Z,1012.8
2016-07-25T05:29:10.284Z,1012.85
2016-07-25T05:30:10.290Z,1012.93
2016-07-25T05:31:10.297Z,1012.89
2016-07-25T05:32:10.853Z,1013.15
2016-07-25T05:33:10.311Z,1013.08
2016-07-25T05:34:10.316Z,1013.09
2016-07-25T05:35:10.324Z,1013.07
2016-07-25T05:36:10.330Z,1013.21
2016-07-25T05:37:10.337Z,1013.35
2016-07-25T05:38:10.345Z,1013.34
2016-07-25T05:39:10.353Z,1013.3
2016-07-25T05:40:10.361Z,1013.2
2016-07-25T05:41:10.368Z,1013.15
2016-07-25T05:42:10.375Z,1013.18
2016-07-25T05:43:10.384Z,1013.29
2016-07-25T05:44:10.390Z,1013.28
2016-07-25T05:45:10.397Z,1013.48
2016-07-25T05:46:10.405Z,1013.48
2016-07-25T05:47:10.413Z,1013.44
2016-07-25T05:48:10.420Z,1013.49
2016-07-25T05:49:10.428Z,1013.48
2016-07-25T05:50:10.436Z,1013.51
2016-07-25T05:51:10.443Z,1013.31
2016-07-25T05:52:10.453Z,1013.28
2016-07-25T05:53:10.458Z,1013.12
2016-07-25T05:54:10.467Z,1013.4
2016-07-25T05:55:10.474Z,1013.22
2016-07-25T05:56:11.534Z,1013.12
2016-07-25T05:57:10.490Z,1013.14
2016-07-25T05:58:10.499Z,1013.03
2016-07-25T05:59:10.505Z,1013.14
2016-07-25T06:00:10.516Z,1013.13
2016-07-25T06:01:10.521Z,1013.05
2016-07-25T06:02:10.529Z,1013.1
2016-07-25T06:03:10.536Z,1013.09
2016-07-25T06:04:10.545Z,1013.07
2016-07-25T06:05:10.552Z,1013.08
2016-07-25T06:06:10.558Z,1013.01
2016-07-25T06:07:10.565Z,1012.95
2016-07-25T06:08:10.573Z,1012.95
2016-07-25T06:09:10.581Z,1012.94
2016-07-25T06:10:10.637Z,1012.95
2016-07-25T06:11:10.595Z,1012.95
2016-07-25T06:12:10.704Z,1012.97
2016-07-25T06:13:10.609Z,1012.97
2016-07-25T06:14:10.617Z,1012.97
2016-07-25T06:15:10.623Z,1012.97
2016-07-25T06:16:10.631Z,1013.03
2016-07-25T06:17:10.637Z,1013.03
2016-07-25T06:18:11.595Z,1013.07
2016-07-25T06:19:10.654Z,1013.2
2016-07-25T06:20:10.660Z,1013.38
2016-07-25T06:21:10.668Z,1013.63
2016-07-25T06:22:10.675Z,1013.55
2016-07-25T06:23:10.682Z,1013.9
2016-07-25T06:24:10.688Z,1013.83
2016-07-25T06:25:10.696Z,1014.06
2016-07-25T06:26:10.703Z,1013.76
2016-07-25T06:27:10.712Z,1013.76
2016-07-25T06:28:10.717Z,1013.74
2016-07-25T06:29:10.727Z,1013.68
2016-07-25T06:30:10.736Z,1013.61
2016-07-25T06:31:10.742Z,1013.52
2016-07-25T06:32:10.748Z,1013.31
2016-07-25T06:33:10.758Z,1013.27
2016-07-25T06:34:10.773Z,1013.31
2016-07-25T06:35:10.773Z,1013.2
2016-07-25T06:36:10.779Z,1013.16
2016-07-25T06:37:10.790Z,1013.18
2016-07-25T06:38:10.798Z,1013.22
2016-07-25T06:39:10.803Z,1013.14
2016-07-25T06:40:11.662Z,1013.13
2016-07-25T06:41:10.820Z,1013.13
2016-07-25T06:42:10.829Z,1013.09
2016-07-25T06:43:10.837Z,1013.18
2016-07-25T06:44:10.843Z,1013.3
2016-07-25T06:45:10.853Z,1013.34
2016-07-25T06:47:10.869Z,1013.95
2016-07-25T06:48:10.876Z,1013.9
2016-07-25T06:49:10.886Z,1013.95
2016-07-25T06:51:10.951Z,1013.58
2016-07-25T06:52:10.909Z,1013.86
2016-07-25T06:53:10.917Z,1013.74
2016-07-25T06:54:10.925Z,1013.61
2016-07-25T06:55:11.383Z,1013.53
2016-07-25T06:56:10.945Z,1013.4
2016-07-25T06:57:10.951Z,1013.75
2016-07-25T06:58:10.960Z,1013.58
2016-07-25T06:59:10.969Z,1013.41
2016-07-25T07:00:10.980Z,1013.48
2016-07-25T07:01:10.985Z,1013.3
2016-07-25T07:02:10.994Z,1013.24
2016-07-25T07:03:11.002Z,1013.22
2016-07-25T07:04:11.010Z,1013.17
2016-07-25T07:05:11.017Z,1013.18
2016-07-25T07:06:11.025Z,1013.32
2016-07-25T07:07:11.034Z,1013.42
2016-07-25T07:08:11.041Z,1013.53
2016-07-25T07:09:11.048Z,1013.41
2016-07-25T07:10:11.106Z,1013.39
2016-07-25T07:11:11.114Z,1013.46
2016-07-25T07:12:11.222Z,1013.28
2016-07-25T07:13:11.081Z,1013.3
2016-07-25T07:14:11.089Z,1013.46
2016-07-25T07:15:11.395Z,1013.62
2016-07-25T07:16:11.104Z,1013.59
2016-07-25T07:17:11.113Z,1013.73
2016-07-25T07:18:11.122Z,1013.9
2016-07-25T07:19:11.129Z,1013.96
2016-07-25T07:20:11.139Z,1013.95
2016-07-25T07:21:11.147Z,1013.93
2016-07-25T07:22:11.158Z,1013.87
2016-07-25T07:23:11.169Z,1013.94
2016-07-25T07:24:11.176Z,1014.01
2016-07-25T07:25:11.186Z,1013.96
2016-07-25T07:26:11.846Z,1013.75
2016-07-25T07:27:11.205Z,1013.81
2016-07-25T07:28:11.216Z,1013.74
2016-07-25T07:29:11.226Z,1013.69
2016-07-25T07:30:11.237Z,1013.67
2016-07-25T07:31:11.245Z,1013.76
2016-07-25T07:32:11.257Z,1013.66
2016-07-25T07:33:11.268Z,1013.67
2016-07-25T07:34:11.276Z,1013.52
2016-07-25T07:35:11.288Z,1013.64
2016-07-25T07:36:11.296Z,1013.62
2016-07-25T07:37:11.308Z,1013.66
2016-07-25T07:38:11.315Z,1013.64
2016-07-25T07:39:11.325Z,1013.63
2016-07-25T07:40:11.334Z,1013.62
2016-07-25T07:41:12.043Z,1013.49
2016-07-25T07:42:11.351Z,1013.36
2016-07-25T07:43:11.361Z,1013.27
2016-07-25T07:44:11.371Z,1013.26
2016-07-25T07:45:11.380Z,1013.27
2016-07-25T07:46:11.389Z,1013.2
2016-07-25T07:47:11.399Z,1013.22
2016-07-25T07:48:11.405Z,1013.19
2016-07-25T07:49:11.463Z,1013.19
2016-07-25T07:50:11.419Z,1013.23
2016-07-25T07:51:11.428Z,1013.17
2016-07-25T07:52:11.435Z,1013.19
2016-07-25T07:53:11.441Z,1013.16
2016-07-25T07:54:11.448Z,1013.17
2016-07-25T07:55:11.454Z,1013.18
2016-07-25T07:56:11.461Z,1013.15
2016-07-25T07:57:11.467Z,1013.2
2016-07-25T07:58:11.475Z,1013.17
2016-07-25T07:59:11.482Z,1013.15
2016-07-25T08:00:11.488Z,1013.17
2016-07-25T08:01:11.495Z,1013.18
2016-07-25T08:02:11.503Z,1013.15
2016-07-25T08:03:12.110Z,1013.18
2016-07-25T08:05:11.523Z,1013.16
2016-07-25T08:06:11.532Z,1013.14
2016-07-25T08:07:11.537Z,1013.13
2016-07-25T08:08:11.543Z,1013.12
2016-07-25T08:09:11.553Z,1013.18
2016-07-25T08:10:11.559Z,1013.18
2016-07-25T08:11:11.565Z,1013.16
2016-07-25T08:12:11.574Z,1013.11
2016-07-25T08:13:11.582Z,1013.15
2016-07-25T08:14:11.588Z,1013.12
2016-07-25T08:15:11.597Z,1013.14
2016-07-25T08:16:11.605Z,1013.09
2016-07-25T08:17:11.613Z,1013.14
2016-07-25T08:18:11.619Z,1013.1
2016-07-25T08:19:11.627Z,1013.07
2016-07-25T08:20:11.636Z,1013.12
2016-07-25T08:21:11.694Z,1013.15
2016-07-25T08:22:11.653Z,1013.18
2016-07-25T08:23:11.658Z,1013.15
2016-07-25T08:24:11.669Z,1013.07
2016-07-25T08:25:11.726Z,1013.08
2016-07-25T08:26:11.683Z,1013.08
2016-07-25T08:27:11.692Z,1013.09
2016-07-25T08:28:11.699Z,1013.13
2016-07-25T08:29:11.705Z,1013.15
2016-07-25T08:30:11.713Z,1013.19
2016-07-25T08:31:11.721Z,1013.14
2016-07-25T08:32:11.728Z,1013.14
2016-07-25T08:33:11.736Z,1013.11
2016-07-25T08:34:11.743Z,1013.17
2016-07-25T08:35:11.751Z,1013.2
2016-07-25T08:36:11.758Z,1013.17
2016-07-25T08:37:11.765Z,1013.19
2016-07-25T08:38:11.772Z,1013.11
2016-07-25T08:39:11.783Z,1013.14
2016-07-25T08:40:11.785Z,1013.16
2016-07-25T08:41:11.841Z,1013.14
2016-07-25T08:42:11.800Z,1013.16
2016-07-25T08:43:11.804Z,1013.19
2016-07-25T08:44:11.812Z,1013.2
2016-07-25T08:45:11.820Z,1013.17
2016-07-25T08:46:11.828Z,1013.15
2016-07-25T08:47:11.835Z,1013.14
2016-07-25T08:48:11.842Z,1013.14
2016-07-25T08:49:12.900Z,1013.19
2016-07-25T08:50:11.855Z,1013.13
2016-07-25T08:51:11.864Z,1013.17
2016-07-25T08:52:11.869Z,1013.14
2016-07-25T08:53:11.877Z,1013.16
2016-07-25T08:54:11.884Z,1013.15
2016-07-25T08:55:11.891Z,1013.16
2016-07-25T08:56:11.898Z,1013.15
2016-07-25T08:57:11.906Z,1013.14
2016-07-25T08:58:11.912Z,1013.12
2016-07-25T08:59:11.919Z,1013.19
2016-07-25T09:00:11.928Z,1013.19
2016-07-25T09:01:11.935Z,1013.17
2016-07-25T09:02:11.941Z,1013.16
2016-07-25T09:03:11.949Z,1013.16
2016-07-25T09:04:11.956Z,1013.19
2016-07-25T09:05:11.963Z,1013.16
2016-07-25T09:06:11.970Z,1013.2
2016-07-25T09:07:11.979Z,1013.25
2016-07-25T09:08:11.986Z,1013.28
2016-07-25T09:09:11.994Z,1013.22
2016-07-25T09:10:12.001Z,1013.24
2016-07-25T09:11:12.559Z,1013.2
2016-07-25T09:12:12.016Z,1013.21
2016-07-25T09:13:12.023Z,1013.22
2016-07-25T09:14:12.030Z,1013.22
2016-07-25T09:15:12.036Z,1013.21
2016-07-25T09:16:12.042Z,1013.24
2016-07-25T09:17:12.098Z,1013.26
2016-07-25T09:18:12.057Z,1013.21
2016-07-25T09:19:12.065Z,1013.18
2016-07-25T09:20:12.073Z,1013.25
2016-07-25T09:21:12.081Z,1013.21
2016-07-25T09:22:12.088Z,1013.21
2016-07-25T09:23:12.094Z,1013.18
2016-07-25T09:24:12.101Z,1013.2
2016-07-25T09:25:12.110Z,1013.21
2016-07-25T09:26:12.116Z,1013.28
2016-07-25T09:27:12.124Z,1013.24
2016-07-25T09:28:12.133Z,1013.28
2016-07-25T09:29:12.140Z,1013.29
2016-07-25T09:30:12.149Z,1013.32
2016-07-25T09:31:12.157Z,1013.28
2016-07-25T09:32:12.165Z,1013.29
2016-07-25T09:33:12.523Z,1013.34
2016-07-25T09:34:12.181Z,1013.25
2016-07-25T09:35:12.188Z,1013.26
2016-07-25T09:36:12.197Z,1013.24
2016-07-25T09:37:12.205Z,1013.27
2016-07-25T09:38:12.210Z,1013.33
2016-07-25T09:39:12.218Z,1013.32
2016-07-25T09:40:12.226Z,1013.34
2016-07-25T09:41:12.234Z,1013.34
2016-07-25T09:42:12.241Z,1013.3
2016-07-25T09:43:12.250Z,1013.35
2016-07-25T09:44:12.258Z,1013.3
2016-07-25T09:45:12.267Z,1013.3
2016-07-25T09:46:12.273Z,1013.21
2016-07-25T09:47:12.282Z,1013.21
2016-07-25T09:48:12.301Z,1013.2
2016-07-25T09:49:12.296Z,1013.18
2016-07-25T09:50:12.303Z,1013.22
2016-07-25T09:51:12.309Z,1013.22
2016-07-25T09:52:12.318Z,1013.22
2016-07-25T09:53:12.325Z,1013.19
2016-07-25T09:54:13.933Z,1013.13
2016-07-25T09:55:12.840Z,1013.12
2016-07-25T09:56:12.348Z,1013.09
2016-07-25T09:57:12.355Z,1013.1
2016-07-25T09:58:12.360Z,1013.09
2016-07-25T09:59:12.371Z,1013.08
2016-07-25T10:00:12.375Z,1013.1
2016-07-25T10:01:12.383Z,1013.14
2016-07-25T10:02:12.390Z,1013.08
2016-07-25T10:03:12.396Z,1013.11
2016-07-25T10:04:12.404Z,1013.07
2016-07-25T10:05:12.413Z,1013.02
2016-07-25T10:06:12.419Z,1013.02
2016-07-25T10:07:12.427Z,1013.01
2016-07-25T10:08:12.433Z,1013.02
2016-07-25T10:09:12.442Z,1012.98
2016-07-25T10:10:13.097Z,1012.99
2016-07-25T10:11:12.453Z,1013.03
2016-07-25T10:12:12.459Z,1013.02
2016-07-25T10:13:12.465Z,1012.99
2016-07-25T10:14:12.473Z,1013.01
2016-07-25T10:15:12.479Z,1012.98
2016-07-25T10:16:12.484Z,1012.99
2016-07-25T10:17:12.491Z,1013
2016-07-25T10:18:12.498Z,1012.98
2016-07-25T10:19:12.661Z,1012.94
2016-07-25T10:20:12.516Z,1012.91
2016-07-25T10:21:12.519Z,1012.93
2016-07-25T10:22:12.531Z,1012.9
2016-07-25T10:23:12.532Z,1012.86
2016-07-25T10:24:12.541Z,1012.85
2016-07-25T10:25:12.547Z,1012.87
2016-07-25T10:26:12.555Z,1012.87
2016-07-25T10:27:12.562Z,1012.87
2016-07-25T10:28:12.571Z,1012.86
2016-07-25T10:29:12.583Z,1012.87
2016-07-25T10:30:12.585Z,1012.86
2016-07-25T10:31:12.592Z,1012.92
2016-07-25T10:32:13.652Z,1012.87
2016-07-25T10:33:12.724Z,1012.96
2016-07-25T10:34:12.673Z,1012.92
2016-07-25T10:35:12.621Z,1012.88
2016-07-25T10:36:12.631Z,1012.9
2016-07-25T10:37:12.636Z,1012.92
2016-07-25T10:38:12.644Z,1012.93
2016-07-25T10:39:12.653Z,1012.96
2016-07-25T10:40:12.659Z,1012.93
2016-07-25T10:41:12.668Z,1012.95
2016-07-25T10:42:12.674Z,1012.94
2016-07-25T10:43:12.771Z,1012.99
2016-07-25T10:44:12.735Z,1013.05
2016-07-25T10:45:12.812Z,1013.04
2016-07-25T10:46:12.740Z,1013.03
2016-07-25T10:47:12.714Z,1013.01
2016-07-25T10:48:12.720Z,1012.99
2016-07-25T10:49:12.730Z,1012.99
2016-07-25T10:50:12.739Z,1012.95
2016-07-25T10:51:12.866Z,1012.93
2016-07-25T10:52:12.802Z,1012.98
2016-07-25T10:53:12.810Z,1012.93
2016-07-25T10:54:13.517Z,1012.91
2016-07-25T10:55:12.772Z,1012.93
2016-07-25T10:56:12.830Z,1012.95
2016-07-25T10:57:12.835Z,1012.92
2016-07-25T10:58:12.793Z,1012.91
2016-07-25T10:59:12.799Z,1012.9
2016-07-25T11:00:12.806Z,1012.88
2016-07-25T11:01:12.814Z,1012.88
2016-07-25T11:02:12.820Z,1012.87
2016-07-25T11:03:12.826Z,1012.84
2016-07-25T11:04:12.833Z,1012.81
2016-07-25T11:05:12.844Z,1012.82
2016-07-25T11:06:12.845Z,1012.83
2016-07-25T11:07:12.854Z,1012.8
2016-07-25T11:08:12.861Z,1012.8
2016-07-25T11:09:12.867Z,1012.78
2016-07-25T11:10:12.873Z,1012.79
2016-07-25T11:11:12.878Z,1012.73
2016-07-25T11:12:12.936Z,1012.72
2016-07-25T11:13:12.890Z,1012.7
2016-07-25T11:14:12.898Z,1012.79
2016-07-25T11:15:12.906Z,1012.73
2016-07-25T11:16:13.612Z,1012.73
2016-07-25T11:17:12.917Z,1012.76
2016-07-25T11:18:12.925Z,1012.72
2016-07-25T11:19:12.932Z,1012.65
2016-07-25T11:20:12.941Z,1012.73
2016-07-25T11:21:12.946Z,1012.74
2016-07-25T11:22:12.953Z,1012.72
2016-07-25T11:23:12.960Z,1012.66
2016-07-25T11:24:12.965Z,1012.72
2016-07-25T11:25:12.972Z,1012.72
2016-07-25T11:26:12.984Z,1012.74
2016-07-25T11:27:12.995Z,1012.76
2016-07-25T11:28:12.996Z,1012.76
2016-07-25T11:29:13.004Z,1012.72
2016-07-25T11:30:13.081Z,1012.67
2016-07-25T11:31:13.019Z,1012.65
2016-07-25T11:32:13.026Z,1012.7
2016-07-25T11:33:13.035Z,1012.68
2016-07-25T11:34:13.042Z,1012.76
2016-07-25T11:35:13.100Z,1012.71
2016-07-25T11:36:13.108Z,1012.69
2016-07-25T11:37:13.066Z,1012.63
2016-07-25T11:38:13.822Z,1012.67
2016-07-25T11:39:13.078Z,1012.7
2016-07-25T11:40:13.085Z,1012.68
2016-07-25T11:41:13.093Z,1012.63
2016-07-25T11:42:13.199Z,1012.61
2016-07-25T11:43:13.106Z,1012.61
2016-07-25T11:44:13.112Z,1012.65
2016-07-25T11:45:13.222Z,1012.63
2016-07-25T11:46:13.211Z,1012.63
2016-07-25T11:47:13.133Z,1012.64
2016-07-25T11:48:13.210Z,1012.63
2016-07-25T11:49:13.148Z,1012.6
2016-07-25T11:50:13.155Z,1012.64
2016-07-25T11:51:13.163Z,1012.61
2016-07-25T11:52:13.170Z,1012.59
2016-07-25T11:53:14.277Z,1012.57
2016-07-25T11:54:13.183Z,1012.63
2016-07-25T11:55:13.191Z,1012.63
2016-07-25T11:56:13.326Z,1012.65
2016-07-25T11:57:13.205Z,1012.65
2016-07-25T11:58:13.387Z,1012.65
2016-07-25T11:59:13.351Z,1012.64
2016-07-25T12:00:13.228Z,1012.64
2016-07-25T12:01:13.233Z,1012.59
2016-07-25T12:02:13.323Z,1012.6
2016-07-25T12:03:13.250Z,1012.63
2016-07-25T12:04:13.258Z,1012.62
2016-07-25T12:05:13.410Z,1012.61
2016-07-25T12:06:13.270Z,1012.65
2016-07-25T12:07:13.369Z,1012.65
2016-07-25T12:08:13.284Z,1012.64
2016-07-25T12:09:13.406Z,1012.64
2016-07-25T12:10:13.299Z,1012.62
2016-07-25T12:11:13.316Z,1012.64